KOKB

Details ICAO KOKB (OKB)
Name Oceanside Muni
Region United States
Timezone America/Los_Angeles (UTC-7.0)
Plans Departing 13
Arriving 19
Stats Elevation 28 ft / 9 m (AMSL)
Location 33.217978° -117.351509°
Runways 1
Magnetic Variation 11.613° E
Sunrise 2018-05-23 12:46:08 UTC / 2018-05-23 05:46:08 Local
Sunset 2018-05-24 02:49:06 UTC / 2018-05-23 19:49:06 Local
Advertisement - Login to hide

Runways

ID Width Length Bearing (true) Bearing (mag) Surface Threshold Offset Overrun Length
06 75 ft / 23 m 2,709 ft / 826 m 80.00° 68.39° Asphalt 0 ft / 0 m 350 ft / 107 m
24 75 ft / 23 m 2,709 ft / 826 m 260.00° 248.39° Asphalt 0 ft / 0 m 0 ft / 0 m

Map

Weather


0- 5 10 15 20 25 30 35+ Temperature / ° C

Clouds and Precipitation
Forecast for 2018-05-23 18:00 UTC. Updated 4 hours ago

Ground ~20,000 ft ~40,000 ft Winds

METAR

KOKB 232052Z AUTO 26011KT 10SM OVC031 20/13 A2996 RMK AO2 SLP146 T02000133 58005

TAF

Not found

Frequencies

Recorded 127.80 MHz ASOS
Approach 127.30 MHz SOCAL APP/DEP
Unicom 123.00 MHz CTAF/UNICOM
Warning: Do not use this data for real-world aviation or navigation. No guarantee of current accuracy is given.